createdAt,value
2017-01-18T17:58:12.497Z,14.87
2017-01-18T17:59:21.485Z,14.41
2017-01-18T18:00:30.464Z,14.23
2017-01-18T18:01:39.461Z,14.26
2017-01-18T18:02:48.487Z,14.26
2017-01-18T18:03:57.826Z,14.2
2017-01-18T18:05:06.839Z,14.26
2017-01-18T18:06:15.801Z,14.46
2017-01-18T18:07:24.761Z,14.46
2017-01-18T18:08:33.746Z,14.57
2017-01-18T18:09:42.714Z,14.62
2017-01-18T18:10:51.690Z,14.56
2017-01-18T18:12:00.657Z,14.67
2017-01-18T18:13:09.636Z,14.72
2017-01-18T18:14:18.598Z,14.86
2017-01-18T18:15:27.561Z,14.86
2017-01-18T18:16:36.540Z,14.9
2017-01-18T18:17:45.506Z,14.93
2017-01-18T18:18:54.485Z,14.9
2017-01-18T18:20:03.452Z,14.9
2017-01-18T18:21:12.421Z,14.88
2017-01-18T18:22:21.396Z,14.84
2017-01-18T18:23:30.372Z,14.88
2017-01-18T18:24:39.344Z,14.86
2017-01-18T18:25:48.328Z,15.01
2017-01-18T18:26:57.315Z,15
2017-01-18T18:28:06.289Z,15.16
2017-01-18T18:29:15.270Z,15.05
2017-01-18T18:30:24.266Z,15.13
2017-01-18T18:31:33.246Z,15.15
2017-01-18T18:32:42.229Z,15.27
2017-01-18T18:33:51.201Z,15.28
2017-01-18T18:35:00.168Z,15.28
2017-01-18T18:36:09.543Z,15.31
2017-01-18T18:37:18.516Z,15.36
2017-01-18T18:38:27.495Z,15.42
2017-01-18T18:39:36.466Z,15.41
2017-01-18T18:40:45.458Z,15.52
2017-01-18T18:41:54.456Z,15.59
2017-01-18T18:43:03.451Z,15.51
2017-01-18T18:44:12.422Z,15.61
2017-01-18T18:45:21.394Z,15.67
2017-01-18T18:46:30.394Z,15.69
2017-01-18T18:47:39.365Z,15.76
2017-01-18T18:48:48.342Z,15.81
2017-01-18T18:49:57.311Z,15.82
2017-01-18T18:51:06.296Z,15.84
2017-01-18T18:52:15.281Z,15.91
2017-01-18T18:53:24.282Z,15.89
2017-01-18T18:54:33.257Z,15.99
2017-01-18T18:55:42.223Z,16.06
2017-01-18T18:56:51.200Z,16.03
2017-01-18T18:58:00.213Z,16.01
2017-01-18T18:59:09.196Z,16.07
2017-01-18T19:00:18.156Z,16.09
2017-01-18T19:01:27.136Z,16.09
2017-01-18T19:02:36.108Z,16.14
2017-01-18T19:03:45.077Z,16.1
2017-01-18T19:04:54.053Z,16.23
2017-01-18T19:06:03.047Z,16.25
2017-01-18T19:07:12.011Z,16.17
2017-01-18T19:08:21.000Z,16.15
2017-01-18T19:09:29.965Z,16.25
2017-01-18T19:10:38.942Z,16.2
2017-01-18T19:11:47.927Z,16.38
2017-01-18T19:12:56.902Z,16.34
2017-01-18T19:14:05.889Z,16.34
2017-01-18T19:15:14.886Z,16.41
2017-01-18T19:16:23.847Z,16.52
2017-01-18T19:17:32.827Z,16.44
2017-01-18T19:18:41.818Z,16.59
2017-01-18T19:19:50.795Z,16.55
2017-01-18T19:20:59.762Z,16.65
2017-01-18T19:22:08.780Z,16.6
2017-01-18T19:23:17.784Z,16.52
2017-01-18T19:24:27.230Z,16.6
2017-01-18T19:25:36.224Z,16.58
2017-01-18T19:26:45.221Z,16.55
2017-01-18T19:27:54.189Z,16.62
2017-01-18T19:29:03.164Z,16.66
2017-01-18T19:30:12.139Z,16.59
2017-01-18T19:31:21.117Z,16.69
2017-01-18T19:32:30.101Z,16.62
2017-01-18T19:33:39.934Z,16.58
2017-01-18T19:34:51.005Z,16.6
2017-01-18T19:35:59.982Z,16.6
2017-01-18T19:37:08.962Z,16.65
2017-01-18T19:38:17.936Z,16.56
2017-01-18T19:39:26.905Z,16.55
2017-01-18T19:40:35.912Z,16.66
2017-01-18T19:41:44.903Z,16.62
2017-01-18T19:42:53.875Z,16.62
2017-01-18T19:44:02.857Z,16.74
2017-01-18T19:45:11.837Z,16.67
2017-01-18T19:46:20.809Z,16.67
2017-01-18T19:47:29.794Z,16.75
2017-01-18T19:48:38.778Z,16.69
2017-01-18T19:49:47.744Z,16.78
2017-01-18T19:50:56.712Z,16.78
2017-01-18T19:52:05.693Z,16.71
2017-01-18T19:53:14.678Z,16.77
2017-01-18T19:54:23.665Z,16.78
2017-01-18T19:55:32.634Z,16.71
2017-01-18T19:56:41.621Z,16.75
2017-01-18T19:57:50.583Z,16.78
2017-01-18T19:58:59.571Z,16.74
2017-01-18T20:00:08.552Z,16.78
2017-01-18T20:01:17.536Z,16.8
2017-01-18T20:02:26.502Z,16.81
2017-01-18T20:03:35.506Z,16.87
2017-01-18T20:04:44.491Z,16.92
2017-01-18T20:05:53.509Z,16.81
2017-01-18T20:07:02.496Z,16.75
2017-01-18T20:08:11.497Z,16.78
2017-01-18T20:09:20.639Z,16.89
2017-01-18T20:10:29.697Z,16.85
2017-01-18T20:11:38.827Z,16.9
2017-01-18T20:12:47.910Z,17.02
2017-01-18T20:13:56.983Z,16.96
2017-01-18T20:15:06.026Z,16.99
2017-01-18T20:16:15.062Z,16.9
2017-01-18T20:17:24.112Z,16.98
2017-01-18T20:18:33.168Z,16.96
2017-01-18T20:19:42.204Z,17.02
2017-01-18T20:20:51.217Z,16.99
2017-01-18T20:22:00.257Z,17
2017-01-18T20:23:09.349Z,16.93
2017-01-18T20:24:18.459Z,16.93
2017-01-18T20:25:27.492Z,17.05
2017-01-18T20:26:36.528Z,16.99
2017-01-18T20:27:45.556Z,16.98
2017-01-18T20:28:54.651Z,17.02
2017-01-18T20:30:03.727Z,17.1
2017-01-18T20:31:12.905Z,17.06
2017-01-18T20:32:22.084Z,17.15
2017-01-18T20:33:31.210Z,17.11
2017-01-18T20:34:40.310Z,17.1
2017-01-18T20:35:49.412Z,17.11
2017-01-18T20:36:58.545Z,17.06
2017-01-18T20:38:07.618Z,17.15
2017-01-18T20:39:16.746Z,17.17
2017-01-18T20:40:25.736Z,17.15
2017-01-18T20:41:34.756Z,17.15
2017-01-18T20:42:43.819Z,17.14
2017-01-18T20:43:52.858Z,17.14
2017-01-18T20:45:01.910Z,17.17
2017-01-18T20:46:10.908Z,17.2
2017-01-18T20:47:19.893Z,17.24
2017-01-18T20:48:28.877Z,17.28
2017-01-18T20:49:37.856Z,17.21
2017-01-18T20:50:46.832Z,17.23
2017-01-18T20:51:55.812Z,17.23
2017-01-18T20:53:04.786Z,17.21
2017-01-18T20:54:13.785Z,17.26
2017-01-18T20:55:22.767Z,17.24
2017-01-18T20:56:31.763Z,17.28
2017-01-18T20:57:40.724Z,17.35
2017-01-18T20:58:49.737Z,17.38
2017-01-18T20:59:58.704Z,17.32
2017-01-18T21:01:07.686Z,17.32
2017-01-18T21:02:16.663Z,17.33
2017-01-18T21:03:25.708Z,17.32
2017-01-18T21:04:34.675Z,17.42
2017-01-18T21:05:43.655Z,17.3
2017-01-18T21:06:52.653Z,17.42
2017-01-18T21:08:01.628Z,17.4
2017-01-18T21:09:10.609Z,17.42
2017-01-18T21:10:19.584Z,17.51
2017-01-18T21:11:28.571Z,17.48
2017-01-18T21:12:37.554Z,17.44
2017-01-18T21:13:46.528Z,17.47
2017-01-18T21:14:55.508Z,17.42
2017-01-18T21:16:04.486Z,17.45
2017-01-18T21:17:13.469Z,17.47
2017-01-18T21:18:22.868Z,17.48
2017-01-18T21:19:31.845Z,17.55
2017-01-18T21:20:40.827Z,17.62
2017-01-18T21:21:49.806Z,17.64
2017-01-18T21:22:58.776Z,17.6
2017-01-18T21:24:07.763Z,17.6
2017-01-18T21:25:16.733Z,17.6
2017-01-18T21:26:25.711Z,17.64
2017-01-18T21:27:34.709Z,17.66
2017-01-18T21:28:43.719Z,17.64
2017-01-18T21:29:52.690Z,17.73
2017-01-18T21:31:01.673Z,17.77
2017-01-18T21:32:10.641Z,17.73
2017-01-18T21:33:19.617Z,17.74
2017-01-18T21:34:28.591Z,17.86
2017-01-18T21:35:37.614Z,17.76
2017-01-18T21:36:46.599Z,17.77
2017-01-18T21:37:55.597Z,17.79
2017-01-18T21:39:04.582Z,17.8
2017-01-18T21:40:13.559Z,17.8
2017-01-18T21:41:22.529Z,17.8
2017-01-18T21:42:31.554Z,17.79
2017-01-18T21:43:40.532Z,17.88
2017-01-18T21:44:49.525Z,17.79
2017-01-18T21:45:58.493Z,17.86
2017-01-18T21:47:07.482Z,17.89
2017-01-18T21:48:16.549Z,17.92
2017-01-18T21:49:25.588Z,17.84
2017-01-18T21:50:34.559Z,17.84
2017-01-18T21:51:43.539Z,17.91
2017-01-18T21:52:52.513Z,17.84
2017-01-18T21:54:01.512Z,17.94
2017-01-18T21:55:10.960Z,17.89
2017-01-18T21:56:19.932Z,17.84
2017-01-18T21:57:28.907Z,17.86
2017-01-18T21:58:37.888Z,17.84
2017-01-18T21:59:46.872Z,17.92
2017-01-18T22:00:55.834Z,17.95
2017-01-18T22:02:04.816Z,18.04
2017-01-18T22:03:13.822Z,17.99
2017-01-18T22:04:22.795Z,18.06
2017-01-18T22:05:31.773Z,18.04
2017-01-18T22:06:40.744Z,18.03
2017-01-18T22:07:49.712Z,18.04
2017-01-18T22:08:58.691Z,18.04
2017-01-18T22:10:07.684Z,18.09
2017-01-18T22:11:16.659Z,18.09
2017-01-18T22:12:25.636Z,18.04
2017-01-18T22:13:34.610Z,18.16
2017-01-18T22:14:43.578Z,18.1
2017-01-18T22:15:52.560Z,18.09
2017-01-18T22:17:01.533Z,18.07
2017-01-18T22:18:10.515Z,18.02
2017-01-18T22:19:19.643Z,18.09
2017-01-18T22:20:28.619Z,18.09
2017-01-18T22:21:37.590Z,18.13
2017-01-18T22:22:46.576Z,18.09
2017-01-18T22:23:55.563Z,18.11
2017-01-18T22:25:06.018Z,18.07
2017-01-18T22:26:15.037Z,18.16
2017-01-18T22:27:25.634Z,18.11
2017-01-18T22:28:34.613Z,18.11
2017-01-18T22:29:43.624Z,18.04
2017-01-18T22:30:53.454Z,18.17
2017-01-18T22:32:02.939Z,18.16
2017-01-18T22:33:11.918Z,18.09
2017-01-18T22:34:20.904Z,18.16
2017-01-18T22:35:29.911Z,18.17
2017-01-18T22:36:38.947Z,18.16
2017-01-18T22:37:47.920Z,18.22
2017-01-18T22:38:57.870Z,18.21
2017-01-18T22:40:06.856Z,18.22
2017-01-18T22:41:17.597Z,18.26
2017-01-18T22:42:26.995Z,18.17
2017-01-18T22:43:36.167Z,18.19
2017-01-18T22:44:45.220Z,18.19
2017-01-18T22:45:54.231Z,18.21
2017-01-18T22:47:03.222Z,18.22
2017-01-18T22:48:13.098Z,18.29
2017-01-18T22:49:22.087Z,18.31
2017-01-18T22:50:31.068Z,18.35
2017-01-18T22:51:40.055Z,18.61
2017-01-18T22:52:49.050Z,18.86
2017-01-18T22:53:58.022Z,19.21
2017-01-18T22:55:07.201Z,19.61
2017-01-18T22:56:16.235Z,19.9
2017-01-18T22:57:25.218Z,19.92
2017-01-18T22:58:34.185Z,19.94
2017-01-18T22:59:43.207Z,19.94
2017-01-18T23:00:52.203Z,19.82
2017-01-18T23:02:01.251Z,19.91
2017-01-18T23:03:10.229Z,19.95
2017-01-18T23:04:19.208Z,20.04
2017-01-18T23:05:28.211Z,20.16
2017-01-18T23:06:37.174Z,20.28
2017-01-18T23:07:46.157Z,20.47
2017-01-18T23:08:55.136Z,20.73
2017-01-18T23:10:04.111Z,20.75
2017-01-18T23:11:13.083Z,20.57
2017-01-18T23:12:22.078Z,20.04
2017-01-18T23:13:31.054Z,19.62
2017-01-18T23:14:40.048Z,19.02
2017-01-18T23:15:49.025Z,18.79
2017-01-18T23:16:57.999Z,18.34
2017-01-18T23:18:06.977Z,17.94
2017-01-18T23:19:15.958Z,17.91
2017-01-18T23:20:24.937Z,17.76
2017-01-18T23:21:33.910Z,17.55
2017-01-18T23:22:42.884Z,17.26
2017-01-18T23:23:51.874Z,16.93
2017-01-18T23:25:00.848Z,16.73
2017-01-18T23:26:09.836Z,16.48
2017-01-18T23:27:18.826Z,16.38
2017-01-18T23:28:27.795Z,16.23
2017-01-18T23:29:36.774Z,16.03
2017-01-18T23:30:45.752Z,15.88
2017-01-18T23:31:54.730Z,15.66
2017-01-18T23:33:03.705Z,15.7
2017-01-18T23:34:12.681Z,15.51
2017-01-18T23:35:21.652Z,15.41
2017-01-18T23:36:30.683Z,15.13
2017-01-18T23:37:39.654Z,15.06
2017-01-18T23:38:48.620Z,14.91
2017-01-18T23:39:57.630Z,14.79
2017-01-18T23:41:06.605Z,14.7
2017-01-18T23:42:15.580Z,14.57
2017-01-18T23:43:24.547Z,14.84
2017-01-18T23:44:33.527Z,14.86
2017-01-18T23:45:42.492Z,14.57
2017-01-18T23:46:51.461Z,14.68
2017-01-18T23:48:00.461Z,14.6
2017-01-18T23:49:09.432Z,14.62
2017-01-18T23:50:18.410Z,14.75
2017-01-18T23:51:27.380Z,14.8
2017-01-18T23:52:36.382Z,14.84
2017-01-18T23:53:45.356Z,14.68
2017-01-18T23:54:54.338Z,14.72
2017-01-18T23:56:03.309Z,14.79
2017-01-18T23:57:12.278Z,14.93
2017-01-18T23:58:21.248Z,14.82
2017-01-18T23:59:30.233Z,14.78
